Terminal Aerodrome Forecast
Issued by NWS

Home | Current Version | Previous Version | Text Only | Print | Product List | Glossary On
Versions: 1 2 3 4 5 6 7 8 9 10 11 12
967
FTUS44 KBMX 122320
TAFTCL
TAF
KTCL 122320Z 1300/1324 32007KT P6SM SKC
     FM130300 VRB02KT P6SM SKC
     FM131600 21009KT P6SM SKC=

USA.gov is the U.S. government's official web portal to all federal, state and local government web resources and services.